sensor_id;sensor_type;location;lat;lon;timestamp;temperature;humidity
11009;DHT22;5557;51.670;7.788;2022-09-16T00:00:46;12.60;91.90
11009;DHT22;5557;51.670;7.788;2022-09-16T00:03:15;12.60;91.60
11009;DHT22;5557;51.670;7.788;2022-09-16T00:05:44;12.60;91.70
11009;DHT22;5557;51.670;7.788;2022-09-16T00:08:12;12.60;91.80
11009;DHT22;5557;51.670;7.788;2022-09-16T00:10:40;12.60;92.40
11009;DHT22;5557;51.670;7.788;2022-09-16T00:13:10;12.60;92.40
11009;DHT22;5557;51.670;7.788;2022-09-16T00:15:45;12.60;92.10
11009;DHT22;5557;51.670;7.788;2022-09-16T00:18:12;12.60;92.40
11009;DHT22;5557;51.670;7.788;2022-09-16T00:20:47;12.60;93.00
11009;DHT22;5557;51.670;7.788;2022-09-16T00:23:14;12.60;92.80
11009;DHT22;5557;51.670;7.788;2022-09-16T00:25:41;12.60;93.00
11009;DHT22;5557;51.670;7.788;2022-09-16T00:28:08;12.60;93.00
11009;DHT22;5557;51.670;7.788;2022-09-16T00:30:36;12.60;93.50
11009;DHT22;5557;51.670;7.788;2022-09-16T00:33:03;12.60;92.90
11009;DHT22;5557;51.670;7.788;2022-09-16T00:35:30;12.60;92.80
11009;DHT22;5557;51.670;7.788;2022-09-16T00:37:56;12.60;92.10
11009;DHT22;5557;51.670;7.788;2022-09-16T00:40:23;12.50;91.90
11009;DHT22;5557;51.670;7.788;2022-09-16T00:42:50;12.50;92.20
11009;DHT22;5557;51.670;7.788;2022-09-16T00:45:21;12.40;92.60
11009;DHT22;5557;51.670;7.788;2022-09-16T00:47:57;12.40;92.90
11009;DHT22;5557;51.670;7.788;2022-09-16T00:53:06;12.40;92.80
11009;DHT22;5557;51.670;7.788;2022-09-16T00:55:36;12.40;92.70
11009;DHT22;5557;51.670;7.788;2022-09-16T00:58:13;12.30;92.60
11009;DHT22;5557;51.670;7.788;2022-09-16T01:00:41;12.30;93.20
11009;DHT22;5557;51.670;7.788;2022-09-16T01:03:08;12.20;93.50
11009;DHT22;5557;51.670;7.788;2022-09-16T01:05:36;12.20;93.50
11009;DHT22;5557;51.670;7.788;2022-09-16T01:08:03;12.20;93.50
11009;DHT22;5557;51.670;7.788;2022-09-16T01:10:31;12.20;93.50
11009;DHT22;5557;51.670;7.788;2022-09-16T01:13:02;12.10;93.90
11009;DHT22;5557;51.670;7.788;2022-09-16T01:15:50;12.10;94.60
11009;DHT22;5557;51.670;7.788;2022-09-16T01:18:41;12.00;94.70
11009;DHT22;5557;51.670;7.788;2022-09-16T01:24:53;12.00;95.60
11009;DHT22;5557;51.670;7.788;2022-09-16T01:27:57;12.00;96.10
11009;DHT22;5557;51.670;7.788;2022-09-16T01:33:35;12.00;96.40
11009;DHT22;5557;51.670;7.788;2022-09-16T01:37:02;12.00;96.50
11009;DHT22;5557;51.670;7.788;2022-09-16T01:39:53;12.00;96.50
11009;DHT22;5557;51.670;7.788;2022-09-16T01:42:39;12.00;96.50
11009;DHT22;5557;51.670;7.788;2022-09-16T01:48:36;12.10;96.30
11009;DHT22;5557;51.670;7.788;2022-09-16T01:51:17;12.10;95.80
11009;DHT22;5557;51.670;7.788;2022-09-16T01:54:32;12.10;95.20
11009;DHT22;5557;51.670;7.788;2022-09-16T01:57:01;12.10;95.40
11009;DHT22;5557;51.670;7.788;2022-09-16T01:59:52;12.20;94.90
11009;DHT22;5557;51.670;7.788;2022-09-16T02:02:27;12.10;95.20
11009;DHT22;5557;51.670;7.788;2022-09-16T02:04:59;12.10;95.40
11009;DHT22;5557;51.670;7.788;2022-09-16T02:07:32;12.10;94.80
11009;DHT22;5557;51.670;7.788;2022-09-16T02:10:09;12.20;94.10
11009;DHT22;5557;51.670;7.788;2022-09-16T02:12:40;12.20;93.90
11009;DHT22;5557;51.670;7.788;2022-09-16T02:15:12;12.20;93.80
11009;DHT22;5557;51.670;7.788;2022-09-16T02:17:50;12.20;93.50
11009;DHT22;5557;51.670;7.788;2022-09-16T02:20:22;12.20;93.90
11009;DHT22;5557;51.670;7.788;2022-09-16T02:23:15;12.20;94.10
11009;DHT22;5557;51.670;7.788;2022-09-16T02:25:46;12.20;94.60
11009;DHT22;5557;51.670;7.788;2022-09-16T02:28:17;12.20;94.60
11009;DHT22;5557;51.670;7.788;2022-09-16T02:30:49;12.20;94.60
11009;DHT22;5557;51.670;7.788;2022-09-16T02:33:18;12.20;94.60
11009;DHT22;5557;51.670;7.788;2022-09-16T02:35:49;12.20;95.20
11009;DHT22;5557;51.670;7.788;2022-09-16T02:38:29;12.10;95.20
11009;DHT22;5557;51.670;7.788;2022-09-16T02:40:57;12.20;95.50
11009;DHT22;5557;51.670;7.788;2022-09-16T02:43:26;12.20;95.50
11009;DHT22;5557;51.670;7.788;2022-09-16T02:52:07;12.10;95.60
11009;DHT22;5557;51.670;7.788;2022-09-16T02:54:48;12.10;95.50
11009;DHT22;5557;51.670;7.788;2022-09-16T02:57:15;12.10;95.70
11009;DHT22;5557;51.670;7.788;2022-09-16T02:59:43;12.10;96.10
11009;DHT22;5557;51.670;7.788;2022-09-16T03:02:11;12.10;95.70
11009;DHT22;5557;51.670;7.788;2022-09-16T03:04:38;12.10;95.60
11009;DHT22;5557;51.670;7.788;2022-09-16T03:07:07;12.10;95.80
11009;DHT22;5557;51.670;7.788;2022-09-16T03:09:37;12.10;96.50
11009;DHT22;5557;51.670;7.788;2022-09-16T03:12:37;12.00;96.60
11009;DHT22;5557;51.670;7.788;2022-09-16T03:15:30;12.00;96.90
11009;DHT22;5557;51.670;7.788;2022-09-16T03:21:18;12.00;97.80
11009;DHT22;5557;51.670;7.788;2022-09-16T03:24:07;12.00;98.30
11009;DHT22;5557;51.670;7.788;2022-09-16T03:26:57;12.00;98.50
11009;DHT22;5557;51.670;7.788;2022-09-16T03:29:43;12.00;98.90
11009;DHT22;5557;51.670;7.788;2022-09-16T03:32:23;12.00;99.10
11009;DHT22;5557;51.670;7.788;2022-09-16T03:35:00;12.00;98.80
11009;DHT22;5557;51.670;7.788;2022-09-16T03:37:29;12.00;98.80
11009;DHT22;5557;51.670;7.788;2022-09-16T03:40:04;12.00;99.00
11009;DHT22;5557;51.670;7.788;2022-09-16T03:42:31;12.00;99.20
11009;DHT22;5557;51.670;7.788;2022-09-16T03:44:59;12.00;99.10
11009;DHT22;5557;51.670;7.788;2022-09-16T03:47:25;12.00;98.50
11009;DHT22;5557;51.670;7.788;2022-09-16T03:49:52;12.00;98.40
11009;DHT22;5557;51.670;7.788;2022-09-16T03:52:19;12.00;98.30
11009;DHT22;5557;51.670;7.788;2022-09-16T03:54:46;12.00;98.30
11009;DHT22;5557;51.670;7.788;2022-09-16T03:57:13;12.10;98.10
11009;DHT22;5557;51.670;7.788;2022-09-16T03:59:40;12.10;97.70
11009;DHT22;5557;51.670;7.788;2022-09-16T04:02:07;12.10;97.40
11009;DHT22;5557;51.670;7.788;2022-09-16T04:04:34;12.20;97.30
11009;DHT22;5557;51.670;7.788;2022-09-16T04:07:01;12.10;97.30
11009;DHT22;5557;51.670;7.788;2022-09-16T04:09:28;12.10;96.90
11009;DHT22;5557;51.670;7.788;2022-09-16T04:11:55;12.10;96.70
11009;DHT22;5557;51.670;7.788;2022-09-16T04:14:22;12.10;97.00
11009;DHT22;5557;51.670;7.788;2022-09-16T04:16:49;12.10;96.50
11009;DHT22;5557;51.670;7.788;2022-09-16T04:19:16;12.10;96.00
11009;DHT22;5557;51.670;7.788;2022-09-16T04:21:43;12.10;93.50
11009;DHT22;5557;51.670;7.788;2022-09-16T04:24:10;12.10;93.10
11009;DHT22;5557;51.670;7.788;2022-09-16T04:26:40;12.10;93.30
11009;DHT22;5557;51.670;7.788;2022-09-16T04:29:07;12.10;92.70
11009;DHT22;5557;51.670;7.788;2022-09-16T04:31:34;12.10;92.40
11009;DHT22;5557;51.670;7.788;2022-09-16T04:34:02;12.10;92.10
11009;DHT22;5557;51.670;7.788;2022-09-16T04:36:30;12.10;92.00
11009;DHT22;5557;51.670;7.788;2022-09-16T04:38:58;12.10;91.80
11009;DHT22;5557;51.670;7.788;2022-09-16T04:41:25;12.10;92.00
11009;DHT22;5557;51.670;7.788;2022-09-16T04:43:57;12.10;92.00
11009;DHT22;5557;51.670;7.788;2022-09-16T04:46:26;12.10;91.90
11009;DHT22;5557;51.670;7.788;2022-09-16T04:48:54;12.10;91.50
11009;DHT22;5557;51.670;7.788;2022-09-16T04:51:22;12.00;91.80
11009;DHT22;5557;51.670;7.788;2022-09-16T04:53:49;12.00;91.70
11009;DHT22;5557;51.670;7.788;2022-09-16T04:56:21;12.00;92.00
11009;DHT22;5557;51.670;7.788;2022-09-16T04:58:52;12.00;91.90
11009;DHT22;5557;51.670;7.788;2022-09-16T05:01:22;12.00;91.80
11009;DHT22;5557;51.670;7.788;2022-09-16T05:03:56;12.00;91.80
11009;DHT22;5557;51.670;7.788;2022-09-16T05:06:28;12.00;92.50
11009;DHT22;5557;51.670;7.788;2022-09-16T05:08:56;12.00;92.30
11009;DHT22;5557;51.670;7.788;2022-09-16T05:11:25;12.00;92.50
11009;DHT22;5557;51.670;7.788;2022-09-16T05:13:53;12.00;93.00
11009;DHT22;5557;51.670;7.788;2022-09-16T05:16:22;12.00;93.20
11009;DHT22;5557;51.670;7.788;2022-09-16T05:18:52;11.90;93.60
11009;DHT22;5557;51.670;7.788;2022-09-16T05:21:22;12.00;93.80
11009;DHT22;5557;51.670;7.788;2022-09-16T05:23:49;12.00;94.40
11009;DHT22;5557;51.670;7.788;2022-09-16T05:26:19;12.00;94.50
11009;DHT22;5557;51.670;7.788;2022-09-16T05:28:46;12.00;94.30
11009;DHT22;5557;51.670;7.788;2022-09-16T05:31:16;12.10;93.80
11009;DHT22;5557;51.670;7.788;2022-09-16T05:33:46;12.10;93.50
11009;DHT22;5557;51.670;7.788;2022-09-16T05:36:15;12.20;93.50
11009;DHT22;5557;51.670;7.788;2022-09-16T05:38:42;12.40;93.40
11009;DHT22;5557;51.670;7.788;2022-09-16T05:41:32;12.60;91.90
11009;DHT22;5557;51.670;7.788;2022-09-16T05:44:00;12.90;87.80
11009;DHT22;5557;51.670;7.788;2022-09-16T05:46:27;13.00;84.80
11009;DHT22;5557;51.670;7.788;2022-09-16T05:48:55;12.90;85.40
11009;DHT22;5557;51.670;7.788;2022-09-16T05:51:23;12.80;88.10
11009;DHT22;5557;51.670;7.788;2022-09-16T05:53:52;12.70;90.80
11009;DHT22;5557;51.670;7.788;2022-09-16T05:56:22;12.60;91.70
11009;DHT22;5557;51.670;7.788;2022-09-16T05:58:52;12.50;93.10
11009;DHT22;5557;51.670;7.788;2022-09-16T06:01:22;12.50;94.50
11009;DHT22;5557;51.670;7.788;2022-09-16T06:03:50;12.40;95.30
11009;DHT22;5557;51.670;7.788;2022-09-16T06:06:24;12.30;95.10
11009;DHT22;5557;51.670;7.788;2022-09-16T06:09:08;12.30;96.60
11009;DHT22;5557;51.670;7.788;2022-09-16T06:11:38;12.20;96.60
11009;DHT22;5557;51.670;7.788;2022-09-16T06:14:07;12.20;97.00
11009;DHT22;5557;51.670;7.788;2022-09-16T06:16:34;12.20;96.90
11009;DHT22;5557;51.670;7.788;2022-09-16T06:19:04;12.20;95.50
11009;DHT22;5557;51.670;7.788;2022-09-16T06:21:32;12.20;95.40
11009;DHT22;5557;51.670;7.788;2022-09-16T06:23:58;12.20;94.70
11009;DHT22;5557;51.670;7.788;2022-09-16T06:26:26;12.20;93.30
11009;DHT22;5557;51.670;7.788;2022-09-16T06:28:53;12.20;91.70
11009;DHT22;5557;51.670;7.788;2022-09-16T06:31:23;12.20;90.60
11009;DHT22;5557;51.670;7.788;2022-09-16T06:33:51;12.20;88.60
11009;DHT22;5557;51.670;7.788;2022-09-16T06:36:23;12.10;89.20
11009;DHT22;5557;51.670;7.788;2022-09-16T06:38:50;12.10;90.50
11009;DHT22;5557;51.670;7.788;2022-09-16T06:41:19;12.10;91.00
11009;DHT22;5557;51.670;7.788;2022-09-16T06:43:48;12.10;91.40
11009;DHT22;5557;51.670;7.788;2022-09-16T06:46:22;12.20;89.60
11009;DHT22;5557;51.670;7.788;2022-09-16T06:48:51;12.20;86.70
11009;DHT22;5557;51.670;7.788;2022-09-16T06:51:21;12.30;88.00
11009;DHT22;5557;51.670;7.788;2022-09-16T06:53:50;12.30;87.80
11009;DHT22;5557;51.670;7.788;2022-09-16T06:56:19;12.40;88.60
11009;DHT22;5557;51.670;7.788;2022-09-16T06:58:50;12.40;88.90
11009;DHT22;5557;51.670;7.788;2022-09-16T07:01:27;12.60;86.90
11009;DHT22;5557;51.670;7.788;2022-09-16T07:03:56;13.20;83.40
11009;DHT22;5557;51.670;7.788;2022-09-16T07:06:27;13.80;65.40
11009;DHT22;5557;51.670;7.788;2022-09-16T07:09:15;13.80;61.80
11009;DHT22;5557;51.670;7.788;2022-09-16T07:11:42;13.60;66.60
11009;DHT22;5557;51.670;7.788;2022-09-16T07:14:09;13.40;71.10
11009;DHT22;5557;51.670;7.788;2022-09-16T07:16:39;13.30;73.70
11009;DHT22;5557;51.670;7.788;2022-09-16T07:19:06;13.20;74.70
11009;DHT22;5557;51.670;7.788;2022-09-16T07:21:33;13.30;73.70
11009;DHT22;5557;51.670;7.788;2022-09-16T07:24:01;13.50;73.90
11009;DHT22;5557;51.670;7.788;2022-09-16T07:26:30;13.80;70.20
11009;DHT22;5557;51.670;7.788;2022-09-16T07:29:00;14.00;61.90
11009;DHT22;5557;51.670;7.788;2022-09-16T07:31:29;14.00;62.00
11009;DHT22;5557;51.670;7.788;2022-09-16T07:33:58;13.80;59.70
11009;DHT22;5557;51.670;7.788;2022-09-16T07:36:50;13.70;64.40
11009;DHT22;5557;51.670;7.788;2022-09-16T07:39:18;13.50;60.20
11009;DHT22;5557;51.670;7.788;2022-09-16T07:41:46;13.40;63.60
11009;DHT22;5557;51.670;7.788;2022-09-16T07:44:15;13.40;66.80
11009;DHT22;5557;51.670;7.788;2022-09-16T07:46:43;13.50;65.30
11009;DHT22;5557;51.670;7.788;2022-09-16T07:49:13;13.50;61.80
11009;DHT22;5557;51.670;7.788;2022-09-16T07:51:40;13.60;64.10
11009;DHT22;5557;51.670;7.788;2022-09-16T07:54:09;13.60;60.70
11009;DHT22;5557;51.670;7.788;2022-09-16T07:56:38;13.50;55.60
11009;DHT22;5557;51.670;7.788;2022-09-16T07:59:06;13.50;54.90
11009;DHT22;5557;51.670;7.788;2022-09-16T08:01:34;13.80;53.00
11009;DHT22;5557;51.670;7.788;2022-09-16T08:04:05;14.00;51.10
11009;DHT22;5557;51.670;7.788;2022-09-16T08:06:32;14.20;45.30
11009;DHT22;5557;51.670;7.788;2022-09-16T08:09:00;14.20;44.60
11009;DHT22;5557;51.670;7.788;2022-09-16T08:11:40;14.70;42.50
11009;DHT22;5557;51.670;7.788;2022-09-16T08:14:08;16.00;26.50
11009;DHT22;5557;51.670;7.788;2022-09-16T08:16:35;17.20;13.60
11009;DHT22;5557;51.670;7.788;2022-09-16T08:19:02;17.60;3.60
11009;DHT22;5557;51.670;7.788;2022-09-16T08:21:29;17.60;4.70
11009;DHT22;5557;51.670;7.788;2022-09-16T08:23:57;17.90;1.00
11009;DHT22;5557;51.670;7.788;2022-09-16T08:26:24;18.50;1.00
11009;DHT22;5557;51.670;7.788;2022-09-16T08:28:52;18.70;1.00
11009;DHT22;5557;51.670;7.788;2022-09-16T08:31:36;18.70;1.00
11009;DHT22;5557;51.670;7.788;2022-09-16T08:34:04;18.80;1.00
11009;DHT22;5557;51.670;7.788;2022-09-16T08:36:32;19.10;1.00
11009;DHT22;5557;51.670;7.788;2022-09-16T08:39:00;19.30;1.00
11009;DHT22;5557;51.670;7.788;2022-09-16T08:48:28;19.50;1.00
11009;DHT22;5557;51.670;7.788;2022-09-16T08:51:02;20.10;1.00
11009;DHT22;5557;51.670;7.788;2022-09-16T08:53:36;20.30;1.00
11009;DHT22;5557;51.670;7.788;2022-09-16T08:56:11;20.50;1.00
11009;DHT22;5557;51.670;7.788;2022-09-16T08:58:44;20.50;1.00
11009;DHT22;5557;51.670;7.788;2022-09-16T09:04:34;20.70;1.00
11009;DHT22;5557;51.670;7.788;2022-09-16T09:07:28;20.80;1.00
11009;DHT22;5557;51.670;7.788;2022-09-16T09:10:33;20.80;1.00
11009;DHT22;5557;51.670;7.788;2022-09-16T09:15:55;20.80;1.00
11009;DHT22;5557;51.670;7.788;2022-09-16T09:24:41;20.20;1.00
11009;DHT22;5557;51.670;7.788;2022-09-16T09:27:30;20.30;1.00
11009;DHT22;5557;51.670;7.788;2022-09-16T09:30:08;20.10;1.00
11009;DHT22;5557;51.670;7.788;2022-09-16T09:37:00;21.00;1.00
11009;DHT22;5557;51.670;7.788;2022-09-16T09:42:17;19.50;1.00
11009;DHT22;5557;51.670;7.788;2022-09-16T09:45:00;20.00;1.00
11009;DHT22;5557;51.670;7.788;2022-09-16T09:47:45;20.50;1.00
11009;DHT22;5557;51.670;7.788;2022-09-16T09:50:22;19.90;1.00
11009;DHT22;5557;51.670;7.788;2022-09-16T09:55:31;19.80;1.00
11009;DHT22;5557;51.670;7.788;2022-09-16T10:01:01;18.30;1.00
11009;DHT22;5557;51.670;7.788;2022-09-16T10:03:29;17.80;1.00
11009;DHT22;5557;51.670;7.788;2022-09-16T10:05:56;17.30;1.00
11009;DHT22;5557;51.670;7.788;2022-09-16T10:08:32;16.80;1.00
11009;DHT22;5557;51.670;7.788;2022-09-16T10:11:13;16.80;1.00
11009;DHT22;5557;51.670;7.788;2022-09-16T10:13:57;17.70;1.00
11009;DHT22;5557;51.670;7.788;2022-09-16T10:16:35;18.40;1.00
11009;DHT22;5557;51.670;7.788;2022-09-16T10:19:21;18.80;1.00
11009;DHT22;5557;51.670;7.788;2022-09-16T10:21:51;19.20;1.00
11009;DHT22;5557;51.670;7.788;2022-09-16T10:24:34;19.30;1.00
11009;DHT22;5557;51.670;7.788;2022-09-16T10:27:16;19.20;1.00
11009;DHT22;5557;51.670;7.788;2022-09-16T10:29:44;19.00;1.00
11009;DHT22;5557;51.670;7.788;2022-09-16T10:32:17;19.10;1.00
11009;DHT22;5557;51.670;7.788;2022-09-16T10:34:45;19.40;1.00
11009;DHT22;5557;51.670;7.788;2022-09-16T10:37:17;19.90;1.00
11009;DHT22;5557;51.670;7.788;2022-09-16T10:39:53;19.80;1.00
11009;DHT22;5557;51.670;7.788;2022-09-16T10:42:24;19.60;1.00
11009;DHT22;5557;51.670;7.788;2022-09-16T10:44:54;19.30;1.00
11009;DHT22;5557;51.670;7.788;2022-09-16T10:47:24;19.80;1.00
11009;DHT22;5557;51.670;7.788;2022-09-16T10:49:56;20.00;1.00
11009;DHT22;5557;51.670;7.788;2022-09-16T10:52:26;20.00;1.00
11009;DHT22;5557;51.670;7.788;2022-09-16T10:54:54;19.50;1.00
11009;DHT22;5557;51.670;7.788;2022-09-16T10:57:30;18.80;1.00
11009;DHT22;5557;51.670;7.788;2022-09-16T11:00:11;18.40;1.00
11009;DHT22;5557;51.670;7.788;2022-09-16T11:09:47;17.40;1.00
11009;DHT22;5557;51.670;7.788;2022-09-16T11:12:44;17.60;1.00
11009;DHT22;5557;51.670;7.788;2022-09-16T11:24:50;16.20;1.00
11009;DHT22;5557;51.670;7.788;2022-09-16T11:27:42;16.80;1.00
11009;DHT22;5557;51.670;7.788;2022-09-16T11:30:18;17.30;1.00
11009;DHT22;5557;51.670;7.788;2022-09-16T11:38:59;18.40;1.00
11009;DHT22;5557;51.670;7.788;2022-09-16T11:41:34;18.60;1.00
11009;DHT22;5557;51.670;7.788;2022-09-16T11:44:35;18.60;1.00
11009;DHT22;5557;51.670;7.788;2022-09-16T11:53:52;17.90;1.00
11009;DHT22;5557;51.670;7.788;2022-09-16T11:56:40;17.50;1.00
11009;DHT22;5557;51.670;7.788;2022-09-16T12:02:56;17.60;1.00
11009;DHT22;5557;51.670;7.788;2022-09-16T12:05:46;17.40;1.00
11009;DHT22;5557;51.670;7.788;2022-09-16T12:08:44;17.40;1.00
11009;DHT22;5557;51.670;7.788;2022-09-16T12:11:36;17.20;1.00
11009;DHT22;5557;51.670;7.788;2022-09-16T12:14:22;17.10;1.00
11009;DHT22;5557;51.670;7.788;2022-09-16T12:16:55;17.20;1.00
11009;DHT22;5557;51.670;7.788;2022-09-16T12:19:42;17.50;1.00
11009;DHT22;5557;51.670;7.788;2022-09-16T12:25:06;18.00;1.00
11009;DHT22;5557;51.670;7.788;2022-09-16T12:27:53;18.50;1.00
11009;DHT22;5557;51.670;7.788;2022-09-16T12:30:29;19.30;1.00
11009;DHT22;5557;51.670;7.788;2022-09-16T12:33:18;19.90;1.00
11009;DHT22;5557;51.670;7.788;2022-09-16T12:38:20;19.40;1.00
11009;DHT22;5557;51.670;7.788;2022-09-16T12:50:32;16.60;1.00
11009;DHT22;5557;51.670;7.788;2022-09-16T12:56:37;15.90;1.00
11009;DHT22;5557;51.670;7.788;2022-09-16T13:01:42;15.80;1.00
11009;DHT22;5557;51.670;7.788;2022-09-16T13:04:18;15.70;1.00
11009;DHT22;5557;51.670;7.788;2022-09-16T13:06:52;15.70;1.00
11009;DHT22;5557;51.670;7.788;2022-09-16T13:09:30;15.60;1.00
11009;DHT22;5557;51.670;7.788;2022-09-16T13:12:03;15.50;1.00
11009;DHT22;5557;51.670;7.788;2022-09-16T13:14:45;15.30;1.00
11009;DHT22;5557;51.670;7.788;2022-09-16T13:17:12;15.60;1.00
11009;DHT22;5557;51.670;7.788;2022-09-16T13:20:12;16.10;1.00
11009;DHT22;5557;51.670;7.788;2022-09-16T13:23:19;17.50;1.00
11009;DHT22;5557;51.670;7.788;2022-09-16T13:26:06;18.40;1.00
11009;DHT22;5557;51.670;7.788;2022-09-16T13:28:36;18.60;1.00
11009;DHT22;5557;51.670;7.788;2022-09-16T13:31:18;18.90;1.00
11009;DHT22;5557;51.670;7.788;2022-09-16T13:34:09;19.60;1.00
11009;DHT22;5557;51.670;7.788;2022-09-16T13:36:40;19.50;1.00
11009;DHT22;5557;51.670;7.788;2022-09-16T13:39:12;19.50;1.00
11009;DHT22;5557;51.670;7.788;2022-09-16T13:44:38;20.00;1.00
11009;DHT22;5557;51.670;7.788;2022-09-16T13:47:30;19.80;1.00
11009;DHT22;5557;51.670;7.788;2022-09-16T13:50:11;19.30;1.00
11009;DHT22;5557;51.670;7.788;2022-09-16T13:52:39;19.80;1.00
11009;DHT22;5557;51.670;7.788;2022-09-16T13:55:20;19.40;1.00
11009;DHT22;5557;51.670;7.788;2022-09-16T13:58:00;19.50;1.00
11009;DHT22;5557;51.670;7.788;2022-09-16T14:00:44;19.40;1.00
11009;DHT22;5557;51.670;7.788;2022-09-16T14:03:41;19.60;1.00
11009;DHT22;5557;51.670;7.788;2022-09-16T14:13:07;19.50;1.00
11009;DHT22;5557;51.670;7.788;2022-09-16T14:15:44;19.10;1.00
11009;DHT22;5557;51.670;7.788;2022-09-16T14:18:14;18.80;1.00
11009;DHT22;5557;51.670;7.788;2022-09-16T14:21:00;18.60;1.00
11009;DHT22;5557;51.670;7.788;2022-09-16T14:23:28;18.70;1.00
11009;DHT22;5557;51.670;7.788;2022-09-16T14:25:55;18.10;1.00
11009;DHT22;5557;51.670;7.788;2022-09-16T14:28:26;17.50;1.00
11009;DHT22;5557;51.670;7.788;2022-09-16T14:30:58;16.90;1.00
11009;DHT22;5557;51.670;7.788;2022-09-16T14:36:28;16.50;1.00
11009;DHT22;5557;51.670;7.788;2022-09-16T14:39:01;16.20;1.00
11009;DHT22;5557;51.670;7.788;2022-09-16T14:41:46;16.10;1.00
11009;DHT22;5557;51.670;7.788;2022-09-16T14:44:35;16.00;1.00
11009;DHT22;5557;51.670;7.788;2022-09-16T14:47:13;15.70;1.00
11009;DHT22;5557;51.670;7.788;2022-09-16T14:50:07;15.60;1.00
11009;DHT22;5557;51.670;7.788;2022-09-16T14:52:38;15.50;1.00
11009;DHT22;5557;51.670;7.788;2022-09-16T14:55:25;15.50;1.00
11009;DHT22;5557;51.670;7.788;2022-09-16T14:57:53;15.40;1.00
11009;DHT22;5557;51.670;7.788;2022-09-16T15:00:20;15.40;1.00
11009;DHT22;5557;51.670;7.788;2022-09-16T15:05:57;15.60;1.00
11009;DHT22;5557;51.670;7.788;2022-09-16T15:08:47;15.60;1.00
11009;DHT22;5557;51.670;7.788;2022-09-16T15:11:20;15.40;1.00
11009;DHT22;5557;51.670;7.788;2022-09-16T15:14:08;15.50;1.00
11009;DHT22;5557;51.670;7.788;2022-09-16T15:16:43;15.60;1.00
11009;DHT22;5557;51.670;7.788;2022-09-16T15:19:34;15.60;1.00
11009;DHT22;5557;51.670;7.788;2022-09-16T15:22:03;15.50;1.00
11009;DHT22;5557;51.670;7.788;2022-09-16T15:24:32;15.60;1.00
11009;DHT22;5557;51.670;7.788;2022-09-16T15:27:00;15.40;1.00
11009;DHT22;5557;51.670;7.788;2022-09-16T15:29:33;15.40;1.00
11009;DHT22;5557;51.670;7.788;2022-09-16T15:32:13;15.30;1.00
11009;DHT22;5557;51.670;7.788;2022-09-16T15:34:43;15.30;1.00
11009;DHT22;5557;51.670;7.788;2022-09-16T15:37:31;15.40;1.00
11009;DHT22;5557;51.670;7.788;2022-09-16T15:40:30;15.50;1.30
11009;DHT22;5557;51.670;7.788;2022-09-16T15:43:13;15.50;5.70
11009;DHT22;5557;51.670;7.788;2022-09-16T15:45:43;15.50;11.40
11009;DHT22;5557;51.670;7.788;2022-09-16T15:48:18;15.50;10.90
11009;DHT22;5557;51.670;7.788;2022-09-16T15:50:59;15.50;6.50
11009;DHT22;5557;51.670;7.788;2022-09-16T15:53:45;15.40;6.10
11009;DHT22;5557;51.670;7.788;2022-09-16T15:56:33;15.50;4.70
11009;DHT22;5557;51.670;7.788;2022-09-16T15:59:45;15.60;5.20
11009;DHT22;5557;51.670;7.788;2022-09-16T16:02:32;15.60;5.70
11009;DHT22;5557;51.670;7.788;2022-09-16T16:05:24;15.50;6.20
11009;DHT22;5557;51.670;7.788;2022-09-16T16:07:55;15.30;9.40
11009;DHT22;5557;51.670;7.788;2022-09-16T16:10:30;15.10;11.20
11009;DHT22;5557;51.670;7.788;2022-09-16T16:13:00;15.00;14.50
11009;DHT22;5557;51.670;7.788;2022-09-16T16:15:38;14.90;16.40
11009;DHT22;5557;51.670;7.788;2022-09-16T16:18:07;14.90;24.80
11009;DHT22;5557;51.670;7.788;2022-09-16T16:20:36;14.90;31.20
11009;DHT22;5557;51.670;7.788;2022-09-16T16:23:03;14.80;28.60
11009;DHT22;5557;51.670;7.788;2022-09-16T16:25:30;14.60;21.10
11009;DHT22;5557;51.670;7.788;2022-09-16T16:27:57;14.50;21.70
11009;DHT22;5557;51.670;7.788;2022-09-16T16:30:24;14.50;22.80
11009;DHT22;5557;51.670;7.788;2022-09-16T16:32:51;14.40;24.10
11009;DHT22;5557;51.670;7.788;2022-09-16T16:35:18;14.50;27.30
11009;DHT22;5557;51.670;7.788;2022-09-16T16:37:45;14.50;29.50
11009;DHT22;5557;51.670;7.788;2022-09-16T16:40:14;14.60;32.90
11009;DHT22;5557;51.670;7.788;2022-09-16T16:42:42;14.70;32.90
11009;DHT22;5557;51.670;7.788;2022-09-16T16:45:12;14.70;28.40
11009;DHT22;5557;51.670;7.788;2022-09-16T16:47:42;14.70;21.20
11009;DHT22;5557;51.670;7.788;2022-09-16T16:50:10;14.60;16.60
11009;DHT22;5557;51.670;7.788;2022-09-16T16:52:37;14.60;15.90
11009;DHT22;5557;51.670;7.788;2022-09-16T16:55:05;14.60;14.40
11009;DHT22;5557;51.670;7.788;2022-09-16T16:57:35;14.60;13.40
11009;DHT22;5557;51.670;7.788;2022-09-16T17:00:02;14.50;12.90
11009;DHT22;5557;51.670;7.788;2022-09-16T17:02:29;14.50;11.90
11009;DHT22;5557;51.670;7.788;2022-09-16T17:04:56;14.50;9.00
11009;DHT22;5557;51.670;7.788;2022-09-16T17:07:25;14.40;9.10
11009;DHT22;5557;51.670;7.788;2022-09-16T17:09:54;14.30;7.90
11009;DHT22;5557;51.670;7.788;2022-09-16T17:12:23;14.30;7.20
11009;DHT22;5557;51.670;7.788;2022-09-16T17:14:51;14.20;7.30
11009;DHT22;5557;51.670;7.788;2022-09-16T17:17:18;14.10;6.90
11009;DHT22;5557;51.670;7.788;2022-09-16T17:19:45;14.10;6.20
11009;DHT22;5557;51.670;7.788;2022-09-16T17:22:14;14.00;6.60
11009;DHT22;5557;51.670;7.788;2022-09-16T17:24:41;13.90;7.20
11009;DHT22;5557;51.670;7.788;2022-09-16T17:27:08;13.80;5.40
11009;DHT22;5557;51.670;7.788;2022-09-16T17:29:35;13.70;5.00
11009;DHT22;5557;51.670;7.788;2022-09-16T17:32:02;13.70;4.70
11009;DHT22;5557;51.670;7.788;2022-09-16T17:34:29;13.60;4.30
11009;DHT22;5557;51.670;7.788;2022-09-16T17:36:57;13.60;4.50
11009;DHT22;5557;51.670;7.788;2022-09-16T17:39:25;13.50;4.80
11009;DHT22;5557;51.670;7.788;2022-09-16T17:41:52;13.40;5.70
11009;DHT22;5557;51.670;7.788;2022-09-16T17:44:22;13.30;6.00
11009;DHT22;5557;51.670;7.788;2022-09-16T17:46:49;13.20;6.80
11009;DHT22;5557;51.670;7.788;2022-09-16T17:49:21;13.20;6.40
11009;DHT22;5557;51.670;7.788;2022-09-16T17:51:49;13.20;6.90
11009;DHT22;5557;51.670;7.788;2022-09-16T17:54:16;13.10;7.40
11009;DHT22;5557;51.670;7.788;2022-09-16T17:56:43;13.10;7.80
11009;DHT22;5557;51.670;7.788;2022-09-16T17:59:11;13.10;8.40
11009;DHT22;5557;51.670;7.788;2022-09-16T18:01:39;13.10;8.30
11009;DHT22;5557;51.670;7.788;2022-09-16T18:04:06;13.00;8.90
11009;DHT22;5557;51.670;7.788;2022-09-16T18:06:42;13.00;8.90
11009;DHT22;5557;51.670;7.788;2022-09-16T18:09:12;13.00;9.60
11009;DHT22;5557;51.670;7.788;2022-09-16T18:11:39;13.00;10.80
11009;DHT22;5557;51.670;7.788;2022-09-16T18:14:09;13.00;11.20
11009;DHT22;5557;51.670;7.788;2022-09-16T18:16:37;12.90;11.60
11009;DHT22;5557;51.670;7.788;2022-09-16T18:19:05;12.90;13.10
11009;DHT22;5557;51.670;7.788;2022-09-16T18:21:32;12.90;14.30
11009;DHT22;5557;51.670;7.788;2022-09-16T18:24:01;12.80;16.00
11009;DHT22;5557;51.670;7.788;2022-09-16T18:26:30;12.80;16.80
11009;DHT22;5557;51.670;7.788;2022-09-16T18:29:00;12.80;18.00
11009;DHT22;5557;51.670;7.788;2022-09-16T18:31:42;12.70;18.80
11009;DHT22;5557;51.670;7.788;2022-09-16T18:34:12;12.70;19.80
11009;DHT22;5557;51.670;7.788;2022-09-16T18:36:40;12.60;21.20